Time;durP1;ratioP1;P1;durP2;ratioP2;P2;SDS_P1;SDS_P2;PMS_P1;PMS_P2;Temp;Humidity;BMP_temperature;BMP_pressure;BME280_temperature;BME280_humidity;BME280_pressure;Samples;Min_cycle;Max_cycle;Signal;HPM_P1;HPM_P2
2022/01/02 00:00:11;;;;;;;32.88;18.90;;;;;;;0.08;100.00;95416.16;4973825;28;20646;-69
2022/01/02 00:02:48;;;;;;;36.58;20.10;;;;;;;-0.08;100.00;95417.28;4975295;28;20046;-69
2022/01/02 00:05:32;;;;;;;32.92;17.98;;;;;;;-0.15;100.00;95416.41;4973846;28;20198;-69
2022/01/02 00:08:03;;;;;;;32.17;18.02;;;;;;;-0.16;100.00;95411.31;4973501;28;20385;-69
2022/01/02 00:10:37;;;;;;;36.35;19.85;;;;;;;0.00;100.00;95403.16;4974690;28;20023;-70
2022/01/02 00:13:04;;;;;;;32.17;18.98;;;;;;;-0.01;100.00;95402.31;4974782;28;20027;-69
2022/01/02 00:15:30;;;;;;;36.15;19.10;;;;;;;-0.07;100.00;95404.91;4973320;28;20034;-69
2022/01/02 00:18:00;;;;;;;32.72;18.17;;;;;;;-0.08;100.00;95408.56;4973318;28;20450;-70
2022/01/02 00:20:43;;;;;;;36.90;19.73;;;;;;;-0.10;100.00;95407.94;4974452;28;20041;-70
2022/01/02 00:23:18;;;;;;;36.45;20.33;;;;;;;-0.05;100.00;95398.44;4974649;28;20031;-69
2022/01/02 00:25:44;;;;;;;34.92;20.15;;;;;;;-0.02;100.00;95405.16;4973599;28;20026;-69
2022/01/02 00:28:27;;;;;;;35.72;19.63;;;;;;;-0.04;100.00;95405.34;4973104;28;20031;-69
2022/01/02 00:30:53;;;;;;;33.17;19.52;;;;;;;-0.03;100.00;95408.78;4974237;28;20022;-70
2022/01/02 00:33:20;;;;;;;39.75;21.38;;;;;;;-0.04;100.00;95409.78;4974413;28;20039;-70
2022/01/02 00:35:47;;;;;;;38.35;20.33;;;;;;;-0.06;100.00;95414.44;4973281;28;20447;-70
2022/01/02 00:38:22;;;;;;;37.78;20.48;;;;;;;-0.06;100.00;95404.72;4987198;28;20026;-70
2022/01/02 00:40:51;;;;;;;35.58;18.40;;;;;;;-0.13;100.00;95405.66;4974164;28;20431;-70
2022/01/02 00:43:26;;;;;;;33.00;19.35;;;;;;;-0.26;100.00;95402.94;4974093;28;20445;-70
2022/01/02 00:49:12;;;;;;;34.17;18.77;;;;;;;-0.20;100.00;95397.75;4974160;28;20114;-69
2022/01/02 00:51:50;;;;;;;33.63;19.37;;;;;;;-0.19;100.00;95394.09;4972786;28;20058;-69
2022/01/02 00:54:22;;;;;;;31.02;18.17;;;;;;;-0.18;100.00;95384.38;4974013;28;20500;-69
2022/01/02 00:56:52;;;;;;;31.75;18.60;;;;;;;-0.17;100.00;95384.19;4973916;28;20034;-70
2022/01/02 00:59:28;;;;;;;29.38;17.15;;;;;;;-0.14;100.00;95375.09;4972568;28;20026;-69
2022/01/02 01:02:03;;;;;;;32.63;16.98;;;;;;;-0.18;100.00;95361.50;4972520;28;20031;-69
2022/01/02 01:04:43;;;;;;;30.70;16.88;;;;;;;-0.16;100.00;95379.72;4972281;28;20030;-69
2022/01/02 01:07:11;;;;;;;33.85;18.08;;;;;;;-0.10;100.00;95374.53;4972575;28;20050;-69
2022/01/02 01:09:56;;;;;;;29.63;16.88;;;;;;;-0.01;100.00;95368.09;4972407;28;20027;-70
2022/01/02 01:12:22;;;;;;;25.33;14.48;;;;;;;0.03;100.00;95375.63;4972318;28;20488;-70
2022/01/02 01:15:11;;;;;;;26.38;15.23;;;;;;;0.02;100.00;95380.06;4973733;28;20037;-69
2022/01/02 01:17:39;;;;;;;30.17;15.13;;;;;;;-0.01;100.00;95369.91;4973730;28;20046;-69
2022/01/02 01:20:19;;;;;;;26.33;14.10;;;;;;;-0.04;100.00;95365.03;4972288;28;20525;-69
2022/01/02 01:22:45;;;;;;;22.75;12.68;;;;;;;-0.10;100.00;95364.00;4995110;28;20121;-69
2022/01/02 01:25:26;;;;;;;23.20;13.20;;;;;;;-0.09;100.00;95373.53;4992915;28;20238;-69
2022/01/02 01:27:53;;;;;;;21.30;12.10;;;;;;;-0.05;100.00;95368.69;4991800;28;20018;-69
2022/01/02 01:30:26;;;;;;;21.25;12.77;;;;;;;-0.11;100.00;95367.63;4991755;28;20462;-69
2022/01/02 01:32:53;;;;;;;23.60;12.57;;;;;;;-0.15;100.00;95376.09;4992961;28;20481;-69
2022/01/02 01:35:19;;;;;;;20.48;11.95;;;;;;;-0.09;100.00;95377.97;4992551;28;20034;-70
2022/01/02 01:37:44;;;;;;;19.92;11.73;;;;;;;-0.07;100.00;95375.97;4991548;28;20034;-70
2022/01/02 01:40:18;;;;;;;21.67;11.13;;;;;;;-0.11;100.00;95385.22;4974837;28;20035;-69
2022/01/02 01:43:04;;;;;;;20.00;11.43;;;;;;;-0.24;100.00;95385.94;4972188;28;20019;-70
2022/01/02 01:45:30;;;;;;;17.08;9.52;;;;;;;-0.32;100.00;95386.91;4972190;28;20041;-70
2022/01/02 01:48:04;;;;;;;17.20;9.75;;;;;;;-0.36;100.00;95384.84;4972228;28;20031;-70
2022/01/02 01:50:37;;;;;;;18.00;10.23;;;;;;;-0.44;100.00;95382.31;4973208;28;20114;-69
2022/01/02 01:53:04;;;;;;;16.08;9.63;;;;;;;-0.49;100.00;95382.09;4972037;28;20449;-70
2022/01/02 01:55:35;;;;;;;17.65;9.73;;;;;;;-0.49;100.00;95384.72;4972054;28;20466;-70
2022/01/02 01:58:10;;;;;;;14.30;8.88;;;;;;;-0.43;100.00;95379.53;4972137;28;20031;-70
2022/01/02 02:00:36;;;;;;;17.00;8.50;;;;;;;-0.42;100.00;95369.81;4972002;28;20077;-70
2022/01/02 02:03:05;;;;;;;17.15;9.18;;;;;;;-0.38;100.00;95374.50;4971879;28;20023;-70
2022/01/02 02:05:31;;;;;;;13.82;8.60;;;;;;;-0.33;100.00;95377.41;4972182;28;20062;-70
2022/01/02 02:07:56;;;;;;;14.73;9.00;;;;;;;-0.30;100.00;95376.19;4973389;28;20482;-69
2022/01/02 02:10:35;;;;;;;16.08;8.90;;;;;;;-0.30;100.00;95366.47;4971947;28;20025;-69
2022/01/02 02:13:05;;;;;;;14.32;8.00;;;;;;;-0.37;100.00;95368.22;4976974;28;20027;-69
2022/01/02 02:15:30;;;;;;;15.80;9.25;;;;;;;-0.47;100.00;95362.47;4976883;28;20142;-69
2022/01/02 02:17:56;;;;;;;14.48;8.70;;;;;;;-0.44;100.00;95363.91;4975705;28;20490;-70
2022/01/02 02:20:29;;;;;;;14.88;8.00;;;;;;;-0.35;100.00;95363.59;4975510;28;20031;-69
2022/01/02 02:22:56;;;;;;;13.23;7.88;;;;;;;-0.34;100.00;95345.97;4975509;28;20118;-70
2022/01/02 02:25:28;;;;;;;16.70;8.10;;;;;;;-0.36;100.00;95350.63;4959223;28;20121;-70
2022/01/02 02:28:02;;;;;;;17.38;7.90;;;;;;;-0.37;100.00;95344.53;4977051;28;20034;-69
2022/01/02 02:30:32;;;;;;;12.88;7.47;;;;;;;-0.36;100.00;95346.16;4976805;28;20042;-69
2022/01/02 02:32:59;;;;;;;11.15;6.63;;;;;;;-0.27;100.00;95335.50;4975645;28;20162;-70
2022/01/02 02:35:28;;;;;;;12.77;6.85;;;;;;;-0.24;100.00;95340.38;4976130;28;20019;-70
2022/01/02 02:37:54;;;;;;;16.05;7.45;;;;;;;-0.30;100.00;95329.63;4987628;28;20112;-70
2022/01/02 02:40:21;;;;;;;15.02;7.25;;;;;;;-0.34;100.00;95332.81;4978031;28;20139;-69
2022/01/02 02:49:01;;;;;;;11.18;6.40;;;;;;;-0.40;100.00;95309.91;4976543;28;20489;-69
2022/01/02 02:51:35;;;;;;;11.38;6.45;;;;;;;-0.35;100.00;95310.94;4975001;28;20393;-69
2022/01/02 02:54:01;;;;;;;9.77;5.55;;;;;;;-0.39;100.00;95309.72;4974977;28;20068;-70
2022/01/02 02:56:40;;;;;;;9.88;5.47;;;;;;;-0.38;100.00;95303.44;4974700;28;20031;-69
2022/01/02 02:59:05;;;;;;;10.35;5.95;;;;;;;-0.32;100.00;95299.25;4975281;28;20042;-69
2022/01/02 03:01:30;;;;;;;8.60;4.90;;;;;;;-0.24;100.00;95299.06;4976023;28;20394;-69
2022/01/02 03:03:56;;;;;;;8.95;5.43;;;;;;;-0.16;100.00;95303.38;4974849;28;20019;-70
2022/01/02 03:06:22;;;;;;;9.88;5.30;;;;;;;-0.14;100.00;95296.09;4975163;28;20493;-70
2022/01/02 03:08:49;;;;;;;9.85;5.20;;;;;;;-0.08;100.00;95290.06;4974627;28;20034;-70
2022/01/02 03:11:24;;;;;;;9.48;5.00;;;;;;;-0.05;100.00;95302.84;4975889;28;20023;-70
2022/01/02 03:13:54;;;;;;;9.65;5.43;;;;;;;-0.09;100.00;95302.44;4974507;28;20537;-70
2022/01/02 03:16:19;;;;;;;11.75;5.35;;;;;;;-0.18;100.00;95294.88;4974458;28;20035;-70
2022/01/02 03:18:45;;;;;;;8.93;5.05;;;;;;;-0.28;100.00;95295.22;4975791;28;20130;-69
2022/01/02 03:21:12;;;;;;;8.13;4.68;;;;;;;-0.44;100.00;95291.03;4974481;28;20026;-70
2022/01/02 03:23:38;;;;;;;7.80;4.45;;;;;;;-0.51;100.00;95290.19;4975545;28;20033;-70
2022/01/02 03:26:06;;;;;;;7.88;4.20;;;;;;;-0.58;100.00;95281.44;4975561;28;20089;-70
2022/01/02 03:28:34;;;;;;;8.23;4.82;;;;;;;-0.64;100.00;95287.47;4974229;28;20102;-70
2022/01/02 03:31:00;;;;;;;7.35;4.22;;;;;;;-0.62;100.00;95290.72;4984472;28;20030;-70
2022/01/02 03:33:33;;;;;;;7.75;4.25;;;;;;;-0.58;100.00;95291.94;4992394;28;20030;-70
2022/01/02 03:35:59;;;;;;;5.90;3.88;;;;;;;-0.56;100.00;95287.31;4983225;28;20055;-70
2022/01/02 03:38:24;;;;;;;7.90;3.88;;;;;;;-0.59;100.00;95290.31;4973694;28;20035;-70
2022/01/02 03:40:52;;;;;;;6.60;4.13;;;;;;;-0.62;100.00;95288.91;4973063;28;20031;-70
2022/01/02 03:43:18;;;;;;;7.25;3.85;;;;;;;-0.67;100.00;95286.00;4973365;28;20054;-70
2022/01/02 03:45:55;;;;;;;5.85;3.83;;;;;;;-0.71;100.00;95276.06;4973172;28;20497;-70
2022/01/02 03:48:20;;;;;;;8.57;4.18;;;;;;;-0.77;100.00;95288.16;4984702;28;20058;-71
2022/01/02 03:50:49;;;;;;;7.20;3.88;;;;;;;-0.80;100.00;95282.47;4974232;28;20034;-70
2022/01/02 03:53:23;;;;;;;9.30;4.07;;;;;;;-0.85;100.00;95276.97;4974321;28;20389;-70
2022/01/02 03:55:49;;;;;;;7.15;3.20;;;;;;;-0.88;100.00;95275.50;4973268;28;20019;-70
2022/01/02 03:58:32;;;;;;;4.65;3.50;;;;;;;-0.88;100.00;95271.06;4972973;28;20126;-70
2022/01/02 04:01:03;;;;;;;6.25;3.20;;;;;;;-0.88;100.00;95260.56;4973869;28;20019;-70
2022/01/02 04:03:31;;;;;;;6.30;3.72;;;;;;;-0.87;100.00;95261.34;4973229;28;20038;-70
2022/01/02 04:05:57;;;;;;;5.85;3.35;;;;;;;-0.88;100.00;95259.72;4972637;28;20109;-70
2022/01/02 04:08:25;;;;;;;6.53;4.00;;;;;;;-0.85;100.00;95264.63;4974227;28;20110;-71
2022/01/02 04:10:50;;;;;;;7.68;4.20;;;;;;;-0.84;100.00;95266.25;4972622;28;20034;-71
2022/01/02 04:13:16;;;;;;;6.28;3.55;;;;;;;-0.81;100.00;95259.81;4972915;28;20019;-70
2022/01/02 04:15:41;;;;;;;5.78;3.38;;;;;;;-0.81;100.00;95250.09;4972466;28;20023;-70
2022/01/02 04:18:06;;;;;;;7.22;3.28;;;;;;;-0.85;100.00;95255.94;4973844;28;20438;-70
2022/01/02 04:20:38;;;;;;;5.88;3.20;;;;;;;-0.85;100.00;95243.59;4972066;28;20077;-70
2022/01/02 04:23:04;;;;;;;6.35;3.40;;;;;;;-0.85;100.00;95245.41;4982028;28;20030;-70
2022/01/02 04:25:38;;;;;;;4.70;3.22;;;;;;;-0.86;100.00;95239.34;4993086;28;20030;-70
2022/01/02 04:28:11;;;;;;;7.40;3.55;;;;;;;-0.89;100.00;95230.00;4991657;28;20034;-71
2022/01/02 04:30:37;;;;;;;5.45;3.58;;;;;;;-0.88;100.00;95229.00;4992659;28;20098;-71
2022/01/02 04:33:04;;;;;;;6.75;3.70;;;;;;;-0.86;100.00;95220.13;4991874;28;20034;-71
2022/01/02 04:35:32;;;;;;;5.85;3.30;;;;;;;-0.84;100.00;95226.81;4990851;28;20052;-71
2022/01/02 04:37:57;;;;;;;6.47;3.70;;;;;;;-0.85;100.00;95227.00;4992867;28;20033;-71
2022/01/02 04:40:25;;;;;;;4.90;3.33;;;;;;;-0.86;100.00;95230.66;4974319;28;20425;-71
2022/01/02 04:42:50;;;;;;;6.20;3.47;;;;;;;-0.86;100.00;95225.38;4973874;28;20058;-71
2022/01/02 04:45:23;;;;;;;6.10;3.42;;;;;;;-0.83;100.00;95222.38;4972112;28;20058;-71
2022/01/02 04:47:56;;;;;;;4.70;2.97;;;;;;;-0.85;100.00;95221.75;4972790;28;20035;-71
2022/01/02 04:50:25;;;;;;;5.63;3.65;;;;;;;-0.89;100.00;95222.13;4973010;28;20033;-71
2022/01/02 04:52:50;;;;;;;5.50;3.25;;;;;;;-0.90;100.00;95220.50;4973268;28;20056;-71
2022/01/02 04:55:19;;;;;;;5.57;3.28;;;;;;;-0.93;100.00;95220.06;4972028;28;20030;-71
2022/01/02 04:57:44;;;;;;;6.57;3.20;;;;;;;-0.95;100.00;95222.06;4973016;28;20018;-71
2022/01/02 05:00:19;;;;;;;6.32;3.53;;;;;;;-0.94;100.00;95216.63;4971635;28;20061;-71
2022/01/02 05:02:52;;;;;;;7.40;3.20;;;;;;;-0.94;100.00;95210.56;4973477;28;20101;-71
2022/01/02 05:05:20;;;;;;;5.32;3.38;;;;;;;-0.94;100.00;95208.75;4982140;28;20054;-71
2022/01/02 05:07:45;;;;;;;5.68;3.05;;;;;;;-0.96;100.00;95209.94;4991547;28;20076;-71
2022/01/02 05:10:11;;;;;;;6.43;3.50;;;;;;;-0.98;100.00;95190.88;4991321;28;20030;-71
2022/01/02 05:12:39;;;;;;;8.18;3.75;;;;;;;-1.00;100.00;95187.66;4992594;28;20034;-71
2022/01/02 05:15:05;;;;;;;3.97;2.60;;;;;;;-0.99;100.00;95189.25;4992810;28;20027;-71
2022/01/02 05:17:39;;;;;;;4.78;2.97;;;;;;;-1.01;100.00;95186.84;4992581;28;20109;-71
2022/01/02 05:20:08;;;;;;;5.93;3.15;;;;;;;-1.02;100.00;95194.91;4991846;28;20093;-71
2022/01/02 05:22:37;;;;;;;5.10;2.92;;;;;;;-0.97;100.00;95200.44;4974057;28;20137;-72
2022/01/02 05:25:06;;;;;;;6.18;3.30;;;;;;;-0.91;100.00;95189.13;4983045;28;20022;-71
2022/01/02 05:27:31;;;;;;;5.47;3.47;;;;;;;-0.95;100.00;95188.72;4991070;28;20030;-71
2022/01/02 05:30:00;;;;;;;7.57;3.53;;;;;;;-0.96;100.00;95183.66;4990868;28;20053;-72
2022/01/02 05:32:28;;;;;;;6.40;2.95;;;;;;;-0.96;100.00;95186.28;4984075;28;20026;-72
2022/01/02 05:34:53;;;;;;;5.55;3.03;;;;;;;-0.96;100.00;95199.41;4992368;28;20033;-72
2022/01/02 05:37:21;;;;;;;7.53;3.15;;;;;;;-0.95;100.00;95198.41;4983792;28;20043;-71
2022/01/02 05:39:49;;;;;;;4.68;3.33;;;;;;;-0.94;100.00;95181.63;4973892;28;20023;-71
2022/01/02 05:42:17;;;;;;;5.03;3.03;;;;;;;-0.97;100.00;95189.91;4991255;28;20030;-71
2022/01/02 05:44:43;;;;;;;6.55;3.33;;;;;;;-0.97;100.00;95185.47;4989285;28;20109;-72
2022/01/02 05:47:08;;;;;;;5.43;2.90;;;;;;;-0.94;100.00;95190.34;4976611;28;20195;-72
2022/01/02 05:49:36;;;;;;;6.07;3.50;;;;;;;-0.85;100.00;95174.41;4979231;28;20026;-71
2022/01/02 05:52:02;;;;;;;7.05;3.72;;;;;;;-0.73;100.00;95171.06;4996227;28;20034;-72
2022/01/02 05:54:33;;;;;;;6.50;3.40;;;;;;;-0.67;100.00;95167.66;4995140;28;20121;-72
2022/01/02 05:56:59;;;;;;;9.38;3.60;;;;;;;-0.66;100.00;95176.34;4994861;28;20548;-71
2022/01/02 05:59:24;;;;;;;7.18;4.07;;;;;;;-0.66;100.00;95174.53;4995489;28;20114;-72
2022/01/02 06:01:50;;;;;;;7.63;3.83;;;;;;;-0.63;100.00;95173.34;4994973;28;20041;-72
2022/01/02 06:04:15;;;;;;;11.18;4.57;;;;;;;-0.63;100.00;95168.91;4994267;28;20026;-72
2022/01/02 06:06:47;;;;;;;9.13;4.40;;;;;;;-0.60;100.00;95180.84;4994667;28;20057;-72
2022/01/02 06:09:17;;;;;;;8.55;4.55;;;;;;;-0.63;100.00;95184.69;4994117;28;20519;-72
2022/01/02 06:11:45;;;;;;;7.28;4.05;;;;;;;-0.64;100.00;95180.44;4994717;28;20026;-72
2022/01/02 06:14:11;;;;;;;7.90;4.57;;;;;;;-0.64;100.00;95184.88;4994140;28;20213;-72
2022/01/02 06:16:36;;;;;;;8.70;5.13;;;;;;;-0.67;100.00;95186.06;4994395;28;20121;-72
2022/01/02 06:19:10;;;;;;;8.82;4.90;;;;;;;-0.67;100.00;95185.25;4977424;28;20034;-71
2022/01/02 06:21:38;;;;;;;9.23;4.78;;;;;;;-0.65;100.00;95185.88;4976203;28;20077;-71
2022/01/02 06:24:07;;;;;;;8.13;4.45;;;;;;;-0.67;100.00;95191.31;4976143;28;20062;-71
2022/01/02 06:26:35;;;;;;;8.10;4.70;;;;;;;-0.72;100.00;95185.03;4974803;28;20494;-71
2022/01/02 06:29:03;;;;;;;8.93;4.30;;;;;;;-0.77;100.00;95198.72;4974648;28;20033;-71
2022/01/02 06:31:31;;;;;;;8.13;4.20;;;;;;;-0.78;100.00;95193.66;4989517;28;20034;-71
2022/01/02 06:33:56;;;;;;;9.18;4.53;;;;;;;-0.78;100.00;95191.84;4985976;28;20490;-71
2022/01/02 06:36:22;;;;;;;9.95;4.70;;;;;;;-0.75;100.00;95188.84;4979864;28;20065;-71
2022/01/02 06:38:48;;;;;;;7.38;3.83;;;;;;;-0.78;100.00;95191.03;4994164;28;20094;-71
2022/01/02 06:41:13;;;;;;;6.75;4.32;;;;;;;-0.85;100.00;95191.00;4993227;28;20026;-71
2022/01/02 06:43:43;;;;;;;7.28;4.28;;;;;;;-0.84;100.00;95189.19;4975413;28;20114;-71
2022/01/02 06:46:09;;;;;;;9.48;4.15;;;;;;;-0.81;100.00;95188.81;4976700;28;20027;-71
2022/01/02 06:48:38;;;;;;;5.93;3.63;;;;;;;-0.81;100.00;95192.25;4975105;28;20105;-71
2022/01/02 06:51:03;;;;;;;10.45;3.90;;;;;;;-0.83;100.00;95180.28;4976564;28;20085;-71
2022/01/02 06:53:31;;;;;;;5.72;3.30;;;;;;;-0.83;100.00;95188.19;4980199;28;20030;-71
2022/01/02 06:55:58;;;;;;;6.57;3.17;;;;;;;-0.83;100.00;95190.81;4978576;28;20081;-71
2022/01/02 06:58:24;;;;;;;5.03;3.20;;;;;;;-0.85;100.00;95187.56;4974223;28;20026;-71
2022/01/02 07:00:51;;;;;;;5.78;3.33;;;;;;;-0.87;100.00;95195.63;4976235;28;20081;-71
2022/01/02 07:03:17;;;;;;;5.60;3.45;;;;;;;-0.90;100.00;95191.56;4974813;28;20022;-71
2022/01/02 07:05:45;;;;;;;5.55;3.30;;;;;;;-0.90;100.00;95190.75;4975882;28;20033;-71
2022/01/02 07:08:12;;;;;;;6.28;3.33;;;;;;;-0.88;100.00;95199.25;4975672;28;20031;-70
2022/01/02 07:10:37;;;;;;;5.93;3.25;;;;;;;-0.85;100.00;95195.47;4978398;28;20162;-70
2022/01/02 07:13:10;;;;;;;4.68;2.58;;;;;;;-0.89;100.00;95208.16;4976165;28;20102;-71
2022/01/02 07:15:35;;;;;;;;;;;;;;;-0.94;100.00;95203.47;4974973;28;20125;-71
2022/01/02 07:18:09;;;;;;;5.40;3.20;;;;;;;-0.93;100.00;95205.09;4975727;28;20011;-71
2022/01/02 07:20:35;;;;;;;5.28;2.72;;;;;;;-0.95;100.00;95204.47;4975554;28;20023;-71
2022/01/02 07:23:05;;;;;;;5.03;2.90;;;;;;;-0.95;100.00;95207.13;4974141;28;20034;-71
2022/01/02 07:25:30;;;;;;;4.28;2.53;;;;;;;-0.99;100.00;95211.09;4975859;28;20490;-71
2022/01/02 07:27:56;;;;;;;4.40;2.47;;;;;;;-0.98;100.00;95207.50;4991101;28;20089;-71
2022/01/02 07:30:21;;;;;;;5.50;2.33;;;;;;;-1.01;100.00;95214.94;4952628;28;20512;-72
2022/01/02 07:32:46;;;;;;;3.53;2.03;;;;;;;-0.99;100.00;95212.94;4926262;28;20054;-71
2022/01/02 07:35:12;;;;;;;5.20;2.45;;;;;;;-0.92;100.00;95205.91;4975773;28;20022;-70
2022/01/02 07:37:39;;;;;;;4.78;2.40;;;;;;;-0.92;100.00;95206.72;4985853;28;20037;-70
2022/01/02 07:40:06;;;;;;;4.63;2.80;;;;;;;-0.91;100.00;95210.16;4976074;28;20034;-71
2022/01/02 07:42:32;;;;;;;3.67;2.33;;;;;;;-0.87;100.00;95208.78;4975673;28;20023;-71
2022/01/02 07:44:58;;;;;;;4.07;2.45;;;;;;;-0.79;100.00;95205.19;4978301;28;20023;-71
2022/01/02 07:47:26;;;;;;;4.32;2.72;;;;;;;-0.74;100.00;95200.19;4975341;28;20489;-71
2022/01/02 07:49:51;;;;;;;4.78;2.78;;;;;;;-0.72;100.00;95195.53;4973904;28;20026;-71
2022/01/02 07:52:19;;;;;;;7.13;2.83;;;;;;;-0.67;100.00;95193.94;4973856;28;20019;-71
2022/01/02 07:54:47;;;;;;;3.90;2.20;;;;;;;-0.59;100.00;95193.00;4975102;28;20035;-71
2022/01/02 07:57:13;;;;;;;4.30;2.33;;;;;;;-0.51;100.00;95184.16;4973775;28;20478;-71
2022/01/02 07:59:41;;;;;;;4.43;2.45;;;;;;;-0.45;100.00;95181.53;4974999;28;20038;-71
2022/01/02 08:02:06;;;;;;;3.55;2.20;;;;;;;-0.36;100.00;95180.38;4973804;28;20030;-71
2022/01/02 08:04:31;;;;;;;5.32;2.70;;;;;;;-0.24;100.00;95169.28;4973819;28;20473;-71
2022/01/02 08:06:59;;;;;;;4.97;2.60;;;;;;;-0.03;100.00;95171.81;4974790;28;20466;-72
2022/01/02 08:09:25;;;;;;;6.75;2.92;;;;;;;0.14;100.00;95167.81;4973794;28;20418;-72
2022/01/02 08:11:52;;;;;;;5.75;3.20;;;;;;;0.29;100.00;95162.38;4986140;28;20030;-72
2022/01/02 08:14:22;;;;;;;5.18;3.28;;;;;;;0.42;100.00;95170.31;4994180;28;20038;-72
2022/01/02 08:16:47;;;;;;;7.15;3.75;;;;;;;0.54;100.00;95168.75;4992860;28;20026;-73
2022/01/02 08:19:13;;;;;;;6.20;3.60;;;;;;;0.64;100.00;95167.50;4993799;28;20030;-72
2022/01/02 08:21:39;;;;;;;7.57;3.65;;;;;;;0.75;100.00;95182.72;4994405;28;20034;-73
2022/01/02 08:24:05;;;;;;;5.07;3.22;;;;;;;0.84;100.00;95171.78;4992966;28;20033;-73
2022/01/02 08:26:30;;;;;;;6.63;3.60;;;;;;;0.92;100.00;95165.50;4992732;28;20023;-73
2022/01/02 08:29:01;;;;;;;5.07;3.25;;;;;;;0.98;100.00;95166.53;4992908;28;20113;-73
2022/01/02 08:31:30;;;;;;;5.97;3.30;;;;;;;1.02;100.00;95160.66;4993885;28;20033;-73
2022/01/02 08:33:57;;;;;;;5.50;3.08;;;;;;;1.04;100.00;95163.88;4992442;28;20022;-73
2022/01/02 08:36:26;;;;;;;6.10;3.28;;;;;;;1.06;100.00;95159.22;4992250;28;20058;-73
2022/01/02 08:38:54;;;;;;;6.80;3.40;;;;;;;1.10;100.00;95159.63;4991388;28;20105;-73
2022/01/02 08:41:20;;;;;;;4.70;2.90;;;;;;;1.16;100.00;95154.34;4974434;28;20034;-74
2022/01/02 08:43:45;;;;;;;4.55;2.80;;;;;;;1.24;100.00;95150.69;4974387;28;20658;-74
2022/01/02 08:46:11;;;;;;;5.72;3.22;;;;;;;1.34;100.00;95137.06;4981100;28;20026;-74
2022/01/02 08:48:36;;;;;;;5.53;3.15;;;;;;;1.44;100.00;95135.63;4972793;28;20035;-74
2022/01/02 08:51:04;;;;;;;5.35;3.13;;;;;;;1.55;100.00;95131.53;4954843;28;20548;-74
2022/01/02 08:53:31;;;;;;;5.60;3.40;;;;;;;1.69;100.00;95135.75;4974111;28;20122;-74
2022/01/02 08:55:56;;;;;;;6.25;3.05;;;;;;;1.85;100.00;95123.94;4973990;28;20023;-74
2022/01/02 08:58:22;;;;;;;6.35;3.47;;;;;;;1.98;100.00;95133.63;4974007;28;20387;-74
2022/01/02 09:00:48;;;;;;;4.85;3.30;;;;;;;2.14;100.00;95121.75;4973768;28;20394;-73
2022/01/02 09:03:13;;;;;;;5.65;3.55;;;;;;;2.25;100.00;95123.72;4973815;28;20023;-73
2022/01/02 09:05:42;;;;;;;4.80;3.08;;;;;;;2.30;100.00;95124.72;4973922;28;20434;-73
2022/01/02 09:08:10;;;;;;;4.38;2.85;;;;;;;2.35;100.00;95133.81;4972826;28;20033;-73
2022/01/02 09:10:35;;;;;;;4.88;2.72;;;;;;;2.39;100.00;95141.13;4974173;28;20023;-73
2022/01/02 09:13:00;;;;;;;5.68;2.95;;;;;;;2.45;100.00;95136.81;4973757;28;20041;-73
2022/01/02 09:15:28;;;;;;;5.10;3.30;;;;;;;2.47;100.00;95132.13;4985724;28;20481;-72
2022/01/02 09:17:54;;;;;;;5.90;3.50;;;;;;;2.55;100.00;95127.41;4993690;28;20057;-73
2022/01/02 09:20:22;;;;;;;6.70;3.95;;;;;;;2.65;100.00;95126.94;5002268;28;20084;-73
2022/01/02 09:22:48;;;;;;;8.48;4.05;;;;;;;2.71;100.00;95127.88;4995226;28;20027;-74
2022/01/02 09:25:13;;;;;;;7.20;4.10;;;;;;;2.71;100.00;95135.81;4991372;28;20036;-73
2022/01/02 09:27:41;;;;;;;5.72;3.58;;;;;;;2.71;100.00;95127.88;4990452;28;20405;-73
2022/01/02 09:30:08;;;;;;;7.35;4.15;;;;;;;2.71;100.00;95123.41;4988250;28;20365;-73
2022/01/02 09:32:35;;;;;;;6.53;4.05;;;;;;;2.73;100.00;95128.50;5009504;28;21563;-73
2022/01/02 09:35:02;;;;;;;6.13;3.92;;;;;;;2.72;100.00;95130.34;5011553;28;20099;-72
2022/01/02 09:37:28;;;;;;;7.00;3.55;;;;;;;2.73;100.00;95117.94;5013729;28;20316;-73
2022/01/02 09:39:53;;;;;;;5.82;3.45;;;;;;;2.75;100.00;95124.63;5011929;28;20034;-70
2022/01/02 09:42:19;;;;;;;6.85;4.03;;;;;;;2.77;100.00;95117.28;5008960;28;20616;-72
2022/01/02 09:44:47;;;;;;;7.03;4.78;;;;;;;2.80;100.00;95108.91;5011768;28;20108;-72
2022/01/02 09:47:17;;;;;;;7.40;4.10;;;;;;;2.81;100.00;95120.28;5011938;28;20447;-72
2022/01/02 09:49:42;;;;;;;7.22;4.45;;;;;;;2.79;100.00;95114.41;5012407;28;20026;-72
2022/01/02 09:52:10;;;;;;;7.18;4.28;;;;;;;2.73;100.00;95108.16;5011223;28;20491;-72
2022/01/02 09:54:35;;;;;;;10.32;5.13;;;;;;;2.70;100.00;95116.50;5011207;28;20022;-72
2022/01/02 09:57:02;;;;;;;7.55;4.35;;;;;;;2.66;100.00;95123.25;5011137;28;20041;-72
2022/01/02 09:59:27;;;;;;;7.13;3.92;;;;;;;2.63;100.00;95133.47;5010996;28;20030;-72
2022/01/02 10:01:55;;;;;;;8.57;4.28;;;;;;;2.84;100.00;95130.47;5012295;28;20385;-72
2022/01/02 10:04:40;;;;;;;7.68;4.35;;;;;;;3.22;100.00;95109.16;5011286;28;20653;-72
2022/01/02 10:07:28;;;;;;;6.95;3.60;;;;;;;3.67;100.00;95095.63;5012244;28;20057;-71
2022/01/02 10:09:53;;;;;;;6.68;3.72;;;;;;;4.28;100.00;95076.13;5011196;28;20029;-71
2022/01/02 10:12:30;;;;;;;6.82;3.72;;;;;;;4.81;100.00;95059.41;5012241;28;20038;-71
2022/01/02 10:15:20;;;;;;;6.13;3.75;;;;;;;5.37;100.00;95045.53;5012198;28;20499;-71
2022/01/02 10:18:06;;;;;;;5.35;3.33;;;;;;;5.83;100.00;95014.56;5010794;28;20037;-71
2022/01/02 10:20:45;;;;;;;6.40;3.42;;;;;;;6.12;100.00;95010.09;5012086;28;20022;-71
2022/01/02 10:23:29;;;;;;;5.85;3.20;;;;;;;6.26;100.00;94984.81;5012127;28;20477;-71
2022/01/02 10:26:00;;;;;;;6.68;4.03;;;;;;;6.57;100.00;94978.16;5008298;28;20089;-71
2022/01/02 10:28:36;;;;;;;4.90;3.40;;;;;;;6.77;100.00;94959.03;5007327;28;20035;-71
2022/01/02 10:31:07;;;;;;;4.80;3.00;;;;;;;7.06;100.00;94938.41;4992459;28;20037;-71
2022/01/02 10:33:49;;;;;;;5.22;3.17;;;;;;;7.34;100.00;94910.78;4941214;28;20045;-71
2022/01/02 10:36:17;;;;;;;6.00;3.13;;;;;;;7.74;100.00;94890.97;4994491;28;20046;-71
2022/01/02 10:39:05;;;;;;;7.13;3.58;;;;;;;8.14;100.00;94872.69;5010975;28;20064;-72
2022/01/02 10:41:45;;;;;;;4.40;3.17;;;;;;;8.65;100.00;94861.56;4983769;28;20541;-71
2022/01/02 10:44:33;;;;;;;7.57;3.45;;;;;;;8.96;100.00;94830.50;5015761;28;20026;-71
2022/01/02 10:47:31;;;;;;;5.60;3.15;;;;;;;9.23;100.00;94819.66;5001880;28;20065;-71
2022/01/02 10:50:11;;;;;;;5.45;3.03;;;;;;;9.50;100.00;94792.72;4995818;28;20030;-71
2022/01/02 10:52:49;;;;;;;4.43;3.08;;;;;;;9.86;100.00;94770.28;4995768;28;20030;-71
2022/01/02 10:55:25;;;;;;;4.80;3.00;;;;;;;10.28;100.00;94760.38;4995483;28;20019;-71
2022/01/02 10:57:56;;;;;;;4.85;2.78;;;;;;;10.37;100.00;94753.41;4995594;28;20042;-71
2022/01/02 11:00:24;;;;;;;4.40;2.83;;;;;;;10.31;100.00;94759.81;4995499;28;20050;-71
2022/01/02 11:02:53;;;;;;;4.82;3.33;;;;;;;10.34;100.00;94768.13;4994321;28;20030;-71
2022/01/02 11:05:21;;;;;;;4.93;2.95;;;;;;;10.31;100.00;94802.66;4966640;28;20033;-71
2022/01/02 11:07:49;;;;;;;3.78;2.80;;;;;;;10.17;100.00;94851.34;5013678;28;20030;-71
2022/01/02 11:10:21;;;;;;;3.72;3.05;;;;;;;10.07;100.00;94896.03;5015090;28;20022;-71
2022/01/02 11:12:48;;;;;;;5.68;3.50;;;;;;;9.94;100.00;94942.84;5015065;28;20045;-71
2022/01/02 11:15:18;;;;;;;5.10;3.15;;;;;;;9.96;100.00;94969.34;5014820;28;20068;-71
2022/01/02 11:17:46;;;;;;;5.65;3.55;;;;;;;9.96;100.00;94982.72;5013633;28;20029;-71
2022/01/02 11:20:20;;;;;;;7.53;3.67;;;;;;;10.01;100.00;95012.19;5014672;28;20033;-71
2022/01/02 11:23:09;;;;;;;6.45;3.80;;;;;;;9.97;100.00;95046.66;5014663;28;20125;-70
2022/01/02 11:26:05;;;;;;;5.28;3.53;;;;;;;9.90;100.00;95070.19;5014771;28;20025;-71
2022/01/02 11:28:47;;;;;;;6.72;3.90;;;;;;;9.82;100.00;95074.16;4995138;28;20566;-71
2022/01/02 11:31:33;;;;;;;7.53;3.97;;;;;;;9.83;100.00;95074.97;4993813;28;20461;-71
2022/01/02 11:34:00;;;;;;;8.45;5.88;;;;;;;9.74;100.00;95097.91;4995078;28;20022;-71
2022/01/02 11:36:34;;;;;;;5.85;4.30;;;;;;;9.66;100.00;95107.25;4994684;28;20420;-71
2022/01/02 11:39:05;;;;;;;8.00;4.47;;;;;;;9.56;100.00;95125.91;4995023;28;20544;-71
2022/01/02 11:41:51;;;;;;;6.13;3.90;;;;;;;9.65;100.00;95152.94;4994754;28;20412;-71
2022/01/02 11:44:21;;;;;;;6.18;3.95;;;;;;;9.79;100.00;95176.34;4995747;28;20448;-71